X  Close Metar Aviation Weather Data     LDPL Pula Airport
Temperature
25°C Temperature
21°C Dewpoint
79% Humidity



Wind
3 MPH
5 KM/H
1 M/S
3 KTS



360°
N
Current Conditions

Clear Clear
Pressure 1010.92 (hPa) - 29.85 (inHg)
Visibility 6.2 (mile) - 10 (km)
Airport
Airport-code LDPL

Location: Pula Airport
Distance: 39 (mi)

Metar:
LDPL 290000Z 36003KT CAVOK 25/21 Q1011

Time: 29-06-2022 02:00 CEST